Time;durP1;ratioP1;P1;durP2;ratioP2;P2;SDS_P1;SDS_P2;PMS_P1;PMS_P2;Temp;Humidity;BMP_temperature;BMP_pressure;BME280_temperature;BME280_humidity;BME280_pressure;Samples;Min_cycle;Max_cycle;Signal;HPM_P1;HPM_P2
2022/03/23 00:01:58;;;;;;;16.63;9.70;;;2.20;70.40;;;;;;5038018;28;20082;-88
2022/03/23 00:04:24;;;;;;;17.60;10.15;;;2.30;68.90;;;;;;5035418;28;20033;-87
2022/03/23 00:06:50;;;;;;;16.85;10.35;;;2.40;66.90;;;;;;5046309;28;20043;-89
2022/03/23 00:09:16;;;;;;;20.02;9.98;;;2.50;66.20;;;;;;5041482;28;20034;-83
2022/03/23 00:11:42;;;;;;;18.52;8.88;;;2.70;63.70;;;;;;5035753;28;20030;-88
2022/03/23 00:14:09;;;;;;;15.32;9.40;;;2.70;64.10;;;;;;5031207;28;20029;-87
2022/03/23 00:16:36;;;;;;;14.50;8.77;;;2.50;67.40;;;;;;5026898;28;20041;-86
2022/03/23 00:19:11;;;;;;;17.75;8.35;;;2.30;67.70;;;;;;5065541;28;20064;-89
2022/03/23 00:21:38;;;;;;;19.48;9.43;;;2.10;69.10;;;;;;5047077;28;20047;-89
2022/03/23 00:24:05;;;;;;;33.10;10.23;;;1.80;73.70;;;;;;5034903;28;20049;-87
2022/03/23 00:26:31;;;;;;;14.43;6.95;;;1.70;76.90;;;;;;5045021;28;20393;-88
2022/03/23 00:28:57;;;;;;;15.02;10.27;;;1.60;79.40;;;;;;5036125;28;20039;-87
2022/03/23 00:31:23;;;;;;;19.80;9.75;;;1.40;78.30;;;;;;5049454;28;20061;-88
2022/03/23 00:33:50;;;;;;;20.90;9.98;;;1.40;78.10;;;;;;5038483;28;20064;-89
2022/03/23 00:36:16;;;;;;;17.85;8.50;;;1.40;77.00;;;;;;5039982;28;20084;-88
2022/03/23 00:38:42;;;;;;;17.30;8.65;;;1.30;76.70;;;;;;5040219;28;20025;-88
2022/03/23 00:41:08;;;;;;;16.77;9.75;;;1.20;76.80;;;;;;5049606;28;20554;-88
2022/03/23 00:43:34;;;;;;;18.10;9.77;;;1.10;83.40;;;;;;5045665;28;20026;-87
2022/03/23 00:46:01;;;;;;;14.07;7.68;;;1.00;85.50;;;;;;5042066;28;20108;-88
2022/03/23 00:48:27;;;;;;;17.75;9.02;;;1.00;83.30;;;;;;5051777;28;20075;-87
2022/03/23 00:50:53;;;;;;;16.33;9.77;;;1.20;79.40;;;;;;5030155;28;20145;-90
2022/03/23 00:53:19;;;;;;;15.13;9.68;;;1.30;77.20;;;;;;5032318;28;20532;-89
2022/03/23 00:55:45;;;;;;;15.27;8.65;;;1.20;79.10;;;;;;5031139;28;20224;-87
2022/03/23 00:58:11;;;;;;;17.73;9.73;;;1.20;77.50;;;;;;5035541;28;20389;-87
2022/03/23 01:00:36;;;;;;;16.67;9.75;;;1.10;75.70;;;;;;5037214;28;20033;-88
2022/03/23 01:03:03;;;;;;;17.10;8.63;;;1.10;78.50;;;;;;5046976;28;20037;-87
2022/03/23 01:05:29;;;;;;;17.58;9.63;;;1.00;78.00;;;;;;5036395;28;20471;-87
2022/03/23 01:07:54;;;;;;;18.02;9.93;;;1.00;76.60;;;;;;5015558;28;20789;-87
2022/03/23 01:10:21;;;;;;;21.23;10.10;;;0.90;76.60;;;;;;5046626;28;20029;-87
2022/03/23 01:12:47;;;;;;;24.88;11.20;;;0.90;79.80;;;;;;5037570;28;20025;-90
2022/03/23 01:15:16;;;;;;;18.50;9.93;;;1.00;78.60;;;;;;5032944;28;20155;-87
2022/03/23 01:17:41;;;;;;;15.82;9.13;;;1.00;78.50;;;;;;5031524;28;20029;-87
2022/03/23 01:20:10;;;;;;;17.80;10.20;;;0.90;79.70;;;;;;5033678;28;20068;-87
2022/03/23 01:22:37;;;;;;;20.38;9.80;;;1.00;79.30;;;;;;5031568;28;20354;-88
2022/03/23 01:25:05;;;;;;;15.90;9.57;;;1.10;79.20;;;;;;5068385;28;20053;-87
2022/03/23 01:27:31;;;;;;;18.27;8.38;;;1.10;78.70;;;;;;5038382;28;20026;-89
2022/03/23 01:29:57;;;;;;;19.13;10.52;;;1.00;79.10;;;;;;5028669;28;20037;-89
2022/03/23 01:32:22;;;;;;;16.23;8.70;;;0.80;81.40;;;;;;5041050;28;20503;-88
2022/03/23 01:34:48;;;;;;;18.38;9.13;;;0.70;82.00;;;;;;5032424;28;20068;-89
2022/03/23 01:37:14;;;;;;;24.23;10.30;;;0.70;81.30;;;;;;5038299;28;20095;-88
2022/03/23 01:39:40;;;;;;;20.08;10.30;;;0.60;82.90;;;;;;5030681;28;20033;-87
2022/03/23 01:42:06;;;;;;;20.75;10.55;;;0.80;83.50;;;;;;5037644;28;20481;-88
2022/03/23 01:44:32;;;;;;;20.35;11.23;;;0.80;84.80;;;;;;5042485;28;20362;-87
2022/03/23 01:47:01;;;;;;;14.77;9.02;;;0.90;83.20;;;;;;5034707;28;20101;-87
2022/03/23 01:49:27;;;;;;;18.13;10.32;;;1.00;81.70;;;;;;5009000;28;20053;-90
2022/03/23 01:51:53;;;;;;;18.42;9.80;;;1.00;80.30;;;;;;5025527;28;20052;-89
2022/03/23 01:54:19;;;;;;;17.65;10.27;;;0.80;82.30;;;;;;5041920;28;20084;-87
2022/03/23 01:56:45;;;;;;;21.55;9.05;;;0.80;81.40;;;;;;5025730;28;20604;-88
2022/03/23 01:59:11;;;;;;;16.00;9.93;;;0.70;86.70;;;;;;5027866;28;20099;-89
2022/03/23 02:01:40;;;;;;;18.45;9.80;;;0.60;84.20;;;;;;5019467;28;20476;-89
2022/03/23 02:04:05;;;;;;;20.67;9.07;;;0.50;84.60;;;;;;5032667;28;20029;-87
2022/03/23 02:06:31;;;;;;;18.77;9.98;;;0.50;86.00;;;;;;5028853;28;20072;-87
2022/03/23 02:08:58;;;;;;;16.17;9.68;;;0.40;85.90;;;;;;5035091;28;20033;-89
2022/03/23 02:11:24;;;;;;;19.30;9.00;;;0.30;87.30;;;;;;5033036;28;20025;-87
2022/03/23 02:13:50;;;;;;;16.75;9.60;;;0.30;87.20;;;;;;5029476;28;20032;-88
2022/03/23 02:16:16;;;;;;;16.58;9.43;;;0.30;87.70;;;;;;5030814;28;20033;-88
2022/03/23 02:18:41;;;;;;;18.92;10.40;;;0.40;85.80;;;;;;5039280;28;20384;-90
2022/03/23 02:21:07;;;;;;;15.18;9.15;;;0.50;84.40;;;;;;5034069;28;20044;-88
2022/03/23 02:23:33;;;;;;;19.10;9.68;;;0.40;84.40;;;;;;5039051;28;20045;-88
2022/03/23 02:26:02;;;;;;;14.82;8.60;;;0.30;84.10;;;;;;5037252;28;20025;-89
2022/03/23 02:28:28;;;;;;;16.98;8.63;;;0.30;83.70;;;;;;5046412;28;20017;-88
2022/03/23 02:30:54;;;;;;;18.10;8.95;;;0.30;83.00;;;;;;5031963;28;20424;-83
2022/03/23 02:33:23;;;;;;;21.40;8.60;;;0.30;82.10;;;;;;5041583;28;20029;-88
2022/03/23 02:35:48;;;;;;;16.38;9.63;;;0.20;82.30;;;;;;5040785;28;20071;-91
2022/03/23 02:38:16;;;;;;;18.52;9.07;;;0.20;84.10;;;;;;5040371;28;20029;-87
2022/03/23 02:40:42;;;;;;;17.40;8.38;;;0.30;83.80;;;;;;5036754;28;20432;-87
2022/03/23 02:43:08;;;;;;;15.43;8.38;;;0.30;84.80;;;;;;5023258;28;20555;-88
2022/03/23 02:45:35;;;;;;;19.10;9.27;;;0.30;86.70;;;;;;5027827;28;20045;-89
2022/03/23 02:48:01;;;;;;;15.82;9.98;;;0.30;85.40;;;;;;5035232;28;20187;-88
2022/03/23 02:50:27;;;;;;;19.05;9.68;;;0.20;84.40;;;;;;5030536;28;20516;-87
2022/03/23 03:01:53;;;;;;;15.93;8.60;;;-0.20;91.40;;;;;;5014958;28;20499;-86
2022/03/23 03:04:20;;;;;;;17.38;9.85;;;-0.20;90.50;;;;;;5019503;28;20072;-87
2022/03/23 03:06:46;;;;;;;18.50;8.93;;;-0.30;90.40;;;;;;5033930;28;20025;-89
2022/03/23 03:09:12;;;;;;;18.25;8.85;;;-0.30;90.50;;;;;;5078615;28;20029;-88
2022/03/23 03:11:39;;;;;;;17.70;8.05;;;-0.20;90.50;;;;;;5021127;28;20036;-86
2022/03/23 03:14:05;;;;;;;16.10;9.05;;;0.00;90.30;;;;;;5043097;28;20041;-87
2022/03/23 03:16:31;;;;;;;15.85;8.25;;;-0.10;89.50;;;;;;5037301;28;20033;-86
2022/03/23 03:18:56;;;;;;;15.95;8.50;;;-0.20;88.70;;;;;;5039243;28;20099;-89
2022/03/23 03:21:22;;;;;;;19.60;10.05;;;-0.30;90.20;;;;;;5037636;28;20053;-89
2022/03/23 03:23:48;;;;;;;18.90;9.38;;;-0.30;89.80;;;;;;5031959;28;20053;-89
2022/03/23 03:26:16;;;;;;;18.08;8.60;;;-0.20;88.70;;;;;;5027825;28;20052;-88
2022/03/23 03:28:43;;;;;;;19.00;9.45;;;-0.20;89.80;;;;;;5016744;28;20032;-88
2022/03/23 03:31:10;;;;;;;20.00;9.85;;;-0.40;90.60;;;;;;5008331;28;20034;-89
2022/03/23 03:36:58;;;;;;;20.92;9.38;;;-0.40;91.30;;;;;;5009469;28;20381;-89
2022/03/23 03:39:24;;;;;;;19.35;9.52;;;-0.30;90.70;;;;;;5035228;28;20036;-88
2022/03/23 03:41:49;;;;;;;17.33;9.43;;;-0.30;90.50;;;;;;5034711;28;20045;-90
2022/03/23 03:44:15;;;;;;;23.38;9.15;;;-0.30;89.80;;;;;;5054610;28;20041;-88
2022/03/23 03:46:40;;;;;;;17.20;9.50;;;-0.20;90.00;;;;;;5039361;28;20029;-89
2022/03/23 03:49:07;;;;;;;18.60;9.73;;;-0.20;90.60;;;;;;5065255;28;20279;-88
2022/03/23 03:51:32;;;;;;;21.10;9.27;;;-0.40;90.10;;;;;;5032368;28;20029;-86
2022/03/23 03:53:58;;;;;;;20.33;10.32;;;-0.30;89.90;;;;;;5027050;28;20036;-87
2022/03/23 03:56:23;;;;;;;16.38;9.38;;;-0.50;90.10;;;;;;5028289;28;20037;-88
2022/03/23 03:58:49;;;;;;;19.42;10.15;;;-0.60;90.60;;;;;;5015461;28;20547;-88
2022/03/23 04:01:15;;;;;;;16.15;8.60;;;-0.70;91.30;;;;;;5034365;28;20072;-88
2022/03/23 04:03:41;;;;;;;17.58;9.68;;;-0.70;91.10;;;;;;5033996;28;20488;-87
2022/03/23 04:06:07;;;;;;;21.90;9.98;;;-0.70;92.20;;;;;;5036804;28;20128;-87
2022/03/23 04:08:32;;;;;;;22.60;9.57;;;-0.70;93.00;;;;;;5039155;28;20384;-87
2022/03/23 04:10:58;;;;;;;17.42;9.00;;;-0.60;92.50;;;;;;5032722;28;20220;-88
2022/03/23 04:13:24;;;;;;;18.23;8.93;;;-0.50;92.40;;;;;;5030635;28;20392;-88
2022/03/23 04:15:50;;;;;;;18.75;9.27;;;-0.40;91.40;;;;;;5029122;28;20542;-89
2022/03/23 04:18:16;;;;;;;15.48;9.10;;;-0.30;90.70;;;;;;5022537;28;20084;-90
2022/03/23 04:20:41;;;;;;;22.20;9.05;;;-0.40;89.60;;;;;;5075011;28;20037;-89
2022/03/23 04:23:07;;;;;;;18.42;9.68;;;-0.50;89.30;;;;;;5034788;28;20050;-88
2022/03/23 04:25:33;;;;;;;17.00;8.45;;;-0.60;89.80;;;;;;5009229;28;20034;-86
2022/03/23 04:27:59;;;;;;;14.95;8.77;;;-0.70;89.80;;;;;;5023990;28;20022;-88
2022/03/23 04:30:30;;;;;;;17.00;8.40;;;-0.70;89.80;;;;;;5033992;28;20025;-86
2022/03/23 04:32:56;;;;;;;16.23;9.32;;;-0.80;90.10;;;;;;5039310;28;20492;-89
2022/03/23 04:35:23;;;;;;;14.93;8.88;;;-0.70;90.60;;;;;;5030539;28;20107;-88
2022/03/23 04:37:49;;;;;;;21.13;11.27;;;-0.70;90.60;;;;;;5032314;28;20365;-83
2022/03/23 04:40:15;;;;;;;18.08;10.30;;;-0.50;90.70;;;;;;5033522;28;20029;-87
2022/03/23 04:42:42;;;;;;;15.60;8.75;;;-0.50;90.30;;;;;;5036337;28;20044;-88
2022/03/23 04:45:09;;;;;;;16.30;9.00;;;-0.60;91.10;;;;;;5019278;28;20498;-87
2022/03/23 04:47:36;;;;;;;18.90;10.68;;;-0.70;92.10;;;;;;5074188;28;20040;-87
2022/03/23 04:50:03;;;;;;;18.00;9.73;;;-0.80;93.40;;;;;;5043360;28;20357;-89
2022/03/23 04:52:30;;;;;;;20.52;8.95;;;-1.00;94.90;;;;;;5044243;28;20151;-87
2022/03/23 04:54:59;;;;;;;20.23;9.07;;;-1.10;94.30;;;;;;5039522;28;20037;-89
2022/03/23 04:57:26;;;;;;;19.17;9.38;;;-1.10;94.50;;;;;;5071681;28;20413;-90
2022/03/23 04:59:58;;;;;;;21.45;10.55;;;-1.00;93.70;;;;;;5031144;28;20030;-88
2022/03/23 05:02:25;;;;;;;19.65;10.23;;;-1.00;95.00;;;;;;5046704;28;20547;-88
2022/03/23 05:04:51;;;;;;;18.90;11.00;;;-1.10;93.80;;;;;;5036881;28;20025;-88
2022/03/23 05:07:16;;;;;;;19.52;9.63;;;-1.00;94.30;;;;;;5032243;28;20099;-89
2022/03/23 05:09:42;;;;;;;19.02;10.57;;;-0.90;94.20;;;;;;5039187;28;20736;-88
2022/03/23 05:12:08;;;;;;;20.33;8.52;;;-0.80;93.20;;;;;;5045894;28;20062;-87
2022/03/23 05:14:36;;;;;;;18.58;10.77;;;-0.80;92.70;;;;;;5036117;28;20079;-86
2022/03/23 05:17:03;;;;;;;17.00;8.88;;;-0.90;93.80;;;;;;5030642;28;20033;-89
2022/03/23 05:19:29;;;;;;;19.92;9.65;;;-0.90;93.10;;;;;;5026476;28;20040;-88
2022/03/23 05:21:55;;;;;;;21.48;10.65;;;-1.10;95.00;;;;;;5039425;28;20059;-88
2022/03/23 05:24:20;;;;;;;17.25;9.68;;;-1.20;95.30;;;;;;5033832;28;20084;-86
2022/03/23 05:26:46;;;;;;;17.52;8.93;;;-1.20;96.20;;;;;;5031768;28;20032;-89
2022/03/23 05:29:12;;;;;;;18.80;9.70;;;-1.30;95.70;;;;;;5032139;28;20044;-86
2022/03/23 05:31:38;;;;;;;22.13;10.98;;;-1.20;95.20;;;;;;5040456;28;20115;-89
2022/03/23 05:34:03;;;;;;;18.90;9.60;;;-1.10;95.10;;;;;;5036275;28;20037;-89
2022/03/23 05:36:30;;;;;;;21.83;9.88;;;-0.90;95.00;;;;;;5036027;28;20033;-87
2022/03/23 05:38:56;;;;;;;22.90;9.30;;;-1.00;94.80;;;;;;5031606;28;20034;-86
2022/03/23 05:41:22;;;;;;;19.10;9.88;;;-0.90;94.30;;;;;;5035764;28;20029;-88
2022/03/23 05:43:48;;;;;;;20.52;11.18;;;-0.80;94.40;;;;;;5031653;28;20274;-87
2022/03/23 05:46:14;;;;;;;18.58;9.75;;;-0.80;93.50;;;;;;5041450;28;20040;-88
2022/03/23 05:48:40;;;;;;;21.33;10.23;;;-0.80;93.30;;;;;;5032846;28;20025;-88
2022/03/23 05:51:06;;;;;;;21.83;10.25;;;-0.70;93.40;;;;;;5044976;28;20087;-89
2022/03/23 05:53:32;;;;;;;21.42;10.02;;;-0.60;93.70;;;;;;5038842;28;20025;-87
2022/03/23 05:55:58;;;;;;;23.20;11.52;;;-0.70;94.30;;;;;;5033734;28;20036;-87
2022/03/23 05:58:24;;;;;;;24.08;10.40;;;-0.70;95.10;;;;;;5034602;28;20051;-86
2022/03/23 06:00:50;;;;;;;22.20;10.30;;;-0.60;95.10;;;;;;5045364;28;20433;-86
2022/03/23 06:03:16;;;;;;;18.17;10.07;;;-0.50;95.30;;;;;;5039239;28;20029;-88
2022/03/23 06:05:41;;;;;;;19.02;10.43;;;-0.40;94.20;;;;;;5029835;28;20040;-87
2022/03/23 06:08:07;;;;;;;20.95;13.48;;;-0.30;94.50;;;;;;5043629;28;20044;-87
2022/03/23 06:10:33;;;;;;;21.05;11.52;;;-0.20;94.80;;;;;;5023457;28;20029;-87
2022/03/23 06:12:59;;;;;;;25.42;11.30;;;-0.20;94.20;;;;;;5051168;28;20029;-88
2022/03/23 06:15:24;;;;;;;23.55;12.38;;;0.00;94.00;;;;;;5024703;28;20029;-87
2022/03/23 06:17:50;;;;;;;22.38;11.27;;;0.20;94.10;;;;;;5012898;28;20045;-88
2022/03/23 06:20:16;;;;;;;24.40;12.32;;;0.40;93.00;;;;;;5022119;28;20242;-89
2022/03/23 06:22:42;;;;;;;23.05;12.35;;;0.60;92.60;;;;;;5033542;28;20043;-87
2022/03/23 06:25:08;;;;;;;21.48;10.80;;;0.70;91.80;;;;;;5045953;28;20147;-87
2022/03/23 06:27:37;;;;;;;25.23;12.20;;;1.00;90.80;;;;;;5025857;28;20022;-89
2022/03/23 06:30:04;;;;;;;23.20;11.43;;;1.00;90.40;;;;;;5017047;28;20034;-87
2022/03/23 06:32:30;;;;;;;23.50;10.48;;;1.00;90.20;;;;;;5023152;28;20038;-89
2022/03/23 06:34:56;;;;;;;21.60;10.70;;;1.00;91.50;;;;;;5014892;28;20041;-88
2022/03/23 06:37:23;;;;;;;24.10;12.02;;;0.90;91.40;;;;;;5010114;28;20034;-87
2022/03/23 06:39:48;;;;;;;31.20;12.23;;;1.00;91.30;;;;;;5025878;28;20033;-88
2022/03/23 06:42:14;;;;;;;25.10;11.38;;;1.10;91.10;;;;;;5032024;28;20045;-87
2022/03/23 06:44:41;;;;;;;21.13;12.00;;;1.20;90.00;;;;;;5040335;28;20033;-87
2022/03/23 06:47:06;;;;;;;20.67;11.30;;;1.60;86.80;;;;;;5043578;28;20021;-88
2022/03/23 06:49:32;;;;;;;19.15;10.43;;;1.90;84.50;;;;;;5033207;28;20037;-87
2022/03/23 06:51:58;;;;;;;19.92;11.13;;;2.10;82.10;;;;;;5033822;28;20072;-88
2022/03/23 06:54:23;;;;;;;21.88;11.38;;;2.20;81.40;;;;;;5031677;28;20735;-87
2022/03/23 06:56:51;;;;;;;21.40;11.27;;;2.20;81.30;;;;;;5040027;28;20029;-88
2022/03/23 06:59:18;;;;;;;19.58;10.13;;;2.30;82.90;;;;;;5033401;28;20075;-87
2022/03/23 07:01:44;;;;;;;21.10;9.52;;;2.30;84.10;;;;;;5037250;28;20048;-88
2022/03/23 07:04:09;;;;;;;19.02;10.43;;;2.40;84.10;;;;;;5034566;28;20041;-87
2022/03/23 07:06:35;;;;;;;21.05;10.70;;;2.50;82.70;;;;;;5032997;28;20026;-87
2022/03/23 07:11:45;;;;;;;21.17;11.15;;;2.80;85.40;;;;;;5024132;28;20077;-91
2022/03/23 07:14:11;;;;;;;27.73;12.20;;;3.10;81.60;;;;;;5021767;28;20458;-86
2022/03/23 07:16:36;;;;;;;22.80;11.50;;;3.20;78.40;;;;;;5028593;28;20097;-88
2022/03/23 07:19:02;;;;;;;20.92;11.95;;;3.40;77.50;;;;;;5037194;28;20025;-87
2022/03/23 07:21:28;;;;;;;20.88;12.75;;;3.60;75.00;;;;;;5035022;28;20037;-87
2022/03/23 07:23:53;;;;;;;21.88;12.48;;;3.70;73.90;;;;;;5035780;28;20114;-88
2022/03/23 07:26:21;;;;;;;29.30;13.73;;;3.80;76.40;;;;;;5036460;28;20518;-88
2022/03/23 07:28:47;;;;;;;23.17;14.55;;;4.00;74.50;;;;;;5040458;28;20065;-88
2022/03/23 07:31:13;;;;;;;24.50;12.30;;;4.20;73.00;;;;;;5031358;28;20080;-87
2022/03/23 07:33:38;;;;;;;23.00;11.05;;;4.30;72.80;;;;;;5029240;28;20084;-88
2022/03/23 07:36:04;;;;;;;21.38;11.82;;;4.50;70.40;;;;;;5033809;28;20033;-87
2022/03/23 07:38:30;;;;;;;20.60;11.18;;;4.70;65.80;;;;;;5035757;28;20066;-88
2022/03/23 07:40:56;;;;;;;20.23;11.38;;;4.80;67.90;;;;;;5029439;28;20022;-88
2022/03/23 07:43:21;;;;;;;20.70;12.23;;;5.10;67.50;;;;;;5036384;28;20135;-88
2022/03/23 07:45:47;;;;;;;34.90;10.90;;;5.20;69.80;;;;;;5036877;28;20103;-87
2022/03/23 07:48:15;;;;;;;16.92;9.50;;;5.40;68.90;;;;;;5026431;28;20029;-87
2022/03/23 07:50:41;;;;;;;23.17;11.88;;;5.60;62.80;;;;;;5032278;28;20131;-86
2022/03/23 07:53:07;;;;;;;19.30;10.60;;;5.80;62.60;;;;;;5027487;28;20484;-89
2022/03/23 07:55:32;;;;;;;20.75;10.30;;;6.00;64.20;;;;;;5031755;28;20033;-81
2022/03/23 07:57:58;;;;;;;16.30;9.57;;;6.10;60.00;;;;;;5029055;28;20042;-87
2022/03/23 08:00:24;;;;;;;21.88;9.82;;;6.30;59.40;;;;;;5019781;28;20075;-84
2022/03/23 08:02:50;;;;;;;20.58;10.40;;;6.50;57.40;;;;;;5037616;28;20448;-84
2022/03/23 08:05:16;;;;;;;21.35;10.35;;;6.60;57.10;;;;;;5035436;28;20033;-85
2022/03/23 08:07:41;;;;;;;20.17;11.13;;;6.70;56.70;;;;;;5044039;28;20027;-84
2022/03/23 08:10:08;;;;;;;21.83;11.57;;;6.90;57.20;;;;;;5035616;28;20034;-84
2022/03/23 08:12:35;;;;;;;20.98;12.30;;;7.00;56.80;;;;;;5036498;28;20029;-85
2022/03/23 08:15:00;;;;;;;18.98;11.43;;;7.20;55.80;;;;;;5039923;28;20029;-86
2022/03/23 08:17:26;;;;;;;24.65;12.45;;;7.30;55.50;;;;;;5040414;28;20029;-85
2022/03/23 08:22:37;;;;;;;22.25;11.85;;;7.50;56.40;;;;;;5037030;28;20072;-85
2022/03/23 08:25:03;;;;;;;27.38;14.27;;;7.70;56.00;;;;;;5039365;28;20041;-85
2022/03/23 08:27:29;;;;;;;24.40;12.68;;;7.70;54.90;;;;;;5035766;28;20033;-86
2022/03/23 08:29:54;;;;;;;23.15;13.30;;;7.80;57.80;;;;;;5037507;28;20285;-85
2022/03/23 08:32:22;;;;;;;27.08;14.18;;;7.90;56.30;;;;;;5032909;28;20401;-86
2022/03/23 08:34:49;;;;;;;23.67;12.70;;;8.10;54.70;;;;;;5026305;28;20021;-86
2022/03/23 08:37:15;;;;;;;28.27;14.00;;;8.10;54.50;;;;;;5037428;28;20473;-86
2022/03/23 08:39:41;;;;;;;23.75;13.20;;;8.30;54.70;;;;;;5036666;28;20033;-85
2022/03/23 08:42:06;;;;;;;24.42;12.40;;;8.50;56.70;;;;;;5031915;28;20274;-84
2022/03/23 08:44:32;;;;;;;23.02;12.82;;;8.60;54.70;;;;;;5036793;28;20033;-85
2022/03/23 08:46:58;;;;;;;23.80;13.88;;;8.70;55.00;;;;;;5068589;28;20039;-84
2022/03/23 08:49:23;;;;;;;24.85;13.60;;;8.90;53.00;;;;;;5026912;28;20091;-85
2022/03/23 08:51:49;;;;;;;25.83;13.55;;;8.90;52.20;;;;;;5039268;28;20689;-82
2022/03/23 08:54:15;;;;;;;22.65;12.20;;;9.20;52.70;;;;;;5017064;28;20162;-84
2022/03/23 08:56:41;;;;;;;24.63;14.50;;;9.30;53.60;;;;;;5042344;28;20029;-84
2022/03/23 08:59:07;;;;;;;22.70;12.80;;;9.50;53.20;;;;;;5039244;28;20401;-83
2022/03/23 09:01:32;;;;;;;23.20;13.77;;;9.70;48.60;;;;;;5041473;28;20087;-83
2022/03/23 09:04:03;;;;;;;26.50;12.80;;;9.70;48.60;;;;;;5037762;28;20037;-82
2022/03/23 09:06:29;;;;;;;26.25;13.95;;;9.80;48.20;;;;;;5042922;28;20517;-83
2022/03/23 09:08:55;;;;;;;24.10;12.93;;;10.00;46.70;;;;;;5037103;28;20405;-82
2022/03/23 09:11:22;;;;;;;26.75;14.30;;;10.20;46.70;;;;;;5033526;28;20143;-83
2022/03/23 09:13:48;;;;;;;23.27;12.15;;;10.40;45.50;;;;;;5031588;28;20034;-82
2022/03/23 09:16:15;;;;;;;24.70;13.55;;;10.50;46.30;;;;;;5036383;28;20542;-82
2022/03/23 09:18:41;;;;;;;23.13;14.00;;;10.60;45.90;;;;;;5039826;28;20030;-82
2022/03/23 09:21:07;;;;;;;23.15;12.73;;;10.80;45.20;;;;;;5037119;28;20119;-82
2022/03/23 09:23:32;;;;;;;28.58;13.77;;;10.90;44.10;;;;;;5038669;28;20136;-83
2022/03/23 09:26:00;;;;;;;23.52;12.98;;;11.00;44.00;;;;;;5042419;28;20040;-82
2022/03/23 09:28:29;;;;;;;20.60;12.50;;;11.00;44.00;;;;;;5045467;28;20099;-83
2022/03/23 09:30:55;;;;;;;27.02;14.10;;;11.20;43.30;;;;;;5034891;28;20091;-83
2022/03/23 09:33:21;;;;;;;25.63;13.15;;;11.30;42.80;;;;;;5030037;28;20034;-83
2022/03/23 09:35:46;;;;;;;22.63;13.55;;;11.50;41.60;;;;;;5041081;28;20037;-83
2022/03/23 09:38:13;;;;;;;23.33;12.95;;;11.70;40.40;;;;;;5041856;28;20035;-82
2022/03/23 09:40:39;;;;;;;24.27;12.55;;;11.90;40.60;;;;;;5028084;28;20041;-82
2022/03/23 09:43:11;;;;;;;25.17;14.18;;;12.10;40.70;;;;;;5041717;28;20076;-80
2022/03/23 09:48:10;;;;;;;22.60;13.80;;;12.60;40.50;;;;;;5031133;28;20435;-81
2022/03/23 09:50:42;;;;;;;20.90;12.10;;;12.80;40.00;;;;;;5027731;28;20043;-82
2022/03/23 09:53:08;;;;;;;25.88;13.35;;;13.00;39.80;;;;;;5026114;28;20175;-82
2022/03/23 09:55:34;;;;;;;23.65;12.80;;;13.10;40.60;;;;;;5040554;28;20095;-81
2022/03/23 09:58:02;;;;;;;22.98;12.80;;;13.10;38.40;;;;;;5035635;28;20041;-81
2022/03/23 10:00:37;;;;;;;23.65;12.98;;;13.40;39.60;;;;;;5035429;28;20067;-81
2022/03/23 10:03:12;;;;;;;23.15;13.15;;;13.50;40.50;;;;;;5037212;28;20063;-81
2022/03/23 10:06:01;;;;;;;26.38;15.20;;;13.80;37.80;;;;;;5029814;28;20033;-81
2022/03/23 10:08:36;;;;;;;26.65;13.88;;;13.80;40.20;;;;;;5028549;28;20112;-81
2022/03/23 10:11:23;;;;;;;24.17;14.57;;;13.90;38.70;;;;;;5033580;28;20025;-81
2022/03/23 10:14:23;;;;;;;27.85;14.15;;;13.70;36.30;;;;;;5034046;28;20112;-81
2022/03/23 10:17:30;;;;;;;19.38;12.23;;;13.70;35.50;;;;;;5031817;28;20020;-81
2022/03/23 10:19:56;;;;;;;26.13;13.90;;;13.80;35.30;;;;;;5006886;28;20033;-81
2022/03/23 10:22:26;;;;;;;20.23;12.48;;;14.10;36.10;;;;;;5036459;28;20068;-81
2022/03/23 10:24:52;;;;;;;24.20;13.10;;;14.30;35.50;;;;;;5034267;28;20045;-80
2022/03/23 10:27:20;;;;;;;22.77;12.88;;;14.40;34.70;;;;;;5034859;28;20677;-80
2022/03/23 10:29:48;;;;;;;20.15;11.98;;;14.10;34.00;;;;;;5034225;28;20026;-80
2022/03/23 10:32:17;;;;;;;18.20;12.45;;;14.20;34.00;;;;;;5028534;28;20492;-81
2022/03/23 10:34:54;;;;;;;18.98;11.63;;;14.30;33.20;;;;;;5040926;28;20135;-81
2022/03/23 10:37:29;;;;;;;21.85;13.52;;;14.30;33.80;;;;;;5027080;28;20488;-80
2022/03/23 10:40:17;;;;;;;20.58;11.75;;;14.50;33.50;;;;;;5038624;28;20049;-80
2022/03/23 10:42:44;;;;;;;21.45;12.77;;;14.60;33.80;;;;;;5032173;28;20495;-80
2022/03/23 10:45:19;;;;;;;17.77;12.10;;;14.70;32.80;;;;;;5030456;28;20045;-80
2022/03/23 10:47:46;;;;;;;20.88;13.63;;;14.80;32.40;;;;;;5040603;28;20030;-80
2022/03/23 10:50:15;;;;;;;19.63;11.25;;;15.00;32.20;;;;;;5030486;28;20068;-80
2022/03/23 10:52:52;;;;;;;19.48;11.30;;;15.30;31.80;;;;;;5040064;28;20480;-80
2022/03/23 10:55:18;;;;;;;22.13;13.00;;;15.60;31.00;;;;;;5035845;28;20034;-80
2022/03/23 10:57:44;;;;;;;20.80;13.10;;;15.90;31.80;;;;;;5036472;28;20027;-80
2022/03/23 11:00:17;;;;;;;19.73;12.63;;;15.80;32.10;;;;;;5029527;28;20812;-78
2022/03/23 11:02:47;;;;;;;21.33;12.93;;;16.60;31.00;;;;;;5028534;28;20129;-79
2022/03/23 11:05:32;;;;;;;20.25;13.95;;;17.20;28.60;;;;;;5031476;28;20434;-80
2022/03/23 11:08:21;;;;;;;20.98;14.43;;;17.50;29.00;;;;;;5025892;28;20033;-78
2022/03/23 11:16:30;;;;;;;19.65;14.98;;;18.70;27.20;;;;;;5035801;28;20115;-77
2022/03/23 11:19:20;;;;;;;27.05;14.73;;;19.00;26.00;;;;;;5035219;28;20029;-77
2022/03/23 11:22:09;;;;;;;19.63;14.25;;;19.20;24.70;;;;;;5034110;28;20023;-78
2022/03/23 11:24:37;;;;;;;20.33;15.10;;;18.60;25.50;;;;;;5022061;28;20049;-78
2022/03/23 11:27:08;;;;;;;19.25;14.35;;;18.90;26.50;;;;;;5030011;28;20056;-78
2022/03/23 11:29:36;;;;;;;31.63;15.43;;;19.90;25.10;;;;;;5033600;28;20488;-78
2022/03/23 11:32:05;;;;;;;25.05;14.63;;;19.00;24.70;;;;;;5043419;28;20048;-78
2022/03/23 11:34:36;;;;;;;23.58;14.60;;;18.20;26.10;;;;;;5037068;28;20499;-78
2022/03/23 11:37:04;;;;;;;21.27;14.70;;;18.00;26.30;;;;;;5038817;28;20037;-78
2022/03/23 11:39:31;;;;;;;20.35;14.15;;;18.10;26.20;;;;;;5036517;28;20033;-79
2022/03/23 11:41:58;;;;;;;22.40;14.65;;;18.90;25.80;;;;;;5038214;28;20065;-79
2022/03/23 11:44:25;;;;;;;22.70;14.98;;;19.50;25.30;;;;;;5036398;28;20086;-79
2022/03/23 11:46:56;;;;;;;20.05;14.57;;;19.70;24.30;;;;;;5032756;28;20116;-77
2022/03/23 11:49:40;;;;;;;19.77;14.55;;;19.70;24.60;;;;;;5033210;28;20400;-78
2022/03/23 11:52:43;;;;;;;20.17;13.80;;;20.20;25.40;;;;;;5038367;28;20029;-77
2022/03/23 11:55:40;;;;;;;20.67;15.38;;;20.50;23.60;;;;;;5014753;28;20037;-78
2022/03/23 11:58:10;;;;;;;20.67;14.63;;;21.40;23.20;;;;;;5039474;28;20033;-78
2022/03/23 12:00:42;;;;;;;21.65;14.60;;;21.60;22.00;;;;;;5033589;28;20028;-77
2022/03/23 12:03:08;;;;;;;23.58;15.55;;;21.90;21.70;;;;;;5036449;28;20144;-77
2022/03/23 12:05:35;;;;;;;19.30;15.13;;;22.10;21.80;;;;;;5031079;28;20036;-78
2022/03/23 12:08:02;;;;;;;20.20;15.38;;;22.10;22.30;;;;;;5036766;28;20025;-78
2022/03/23 12:10:32;;;;;;;20.48;15.48;;;22.20;22.00;;;;;;5043676;28;20045;-78
2022/03/23 12:13:18;;;;;;;19.88;16.50;;;22.10;21.70;;;;;;5045870;28;20473;-78
2022/03/23 12:15:57;;;;;;;20.27;15.05;;;22.50;20.50;;;;;;5040302;28;20053;-77
2022/03/23 12:19:01;;;;;;;21.33;15.80;;;21.90;23.50;;;;;;5033485;28;20063;-79
2022/03/23 12:21:31;;;;;;;19.02;14.80;;;23.00;21.30;;;;;;5033536;28;20276;-79
2022/03/23 12:24:09;;;;;;;21.90;16.27;;;23.00;22.30;;;;;;5033036;28;20097;-79
2022/03/23 12:26:39;;;;;;;20.17;15.68;;;23.50;20.80;;;;;;5032875;28;20040;-79
2022/03/23 12:29:21;;;;;;;21.73;17.10;;;22.20;22.40;;;;;;5043977;28;20094;-79
2022/03/23 12:31:47;;;;;;;21.20;16.90;;;21.90;21.90;;;;;;5042059;28;20037;-80
2022/03/23 12:34:16;;;;;;;23.45;17.90;;;22.90;21.20;;;;;;5037318;28;20041;-79
2022/03/23 12:37:01;;;;;;;22.90;15.70;;;24.30;20.20;;;;;;5032582;28;20031;-79
2022/03/23 12:39:31;;;;;;;18.65;15.02;;;25.30;18.70;;;;;;5035820;28;20515;-79
2022/03/23 12:41:59;;;;;;;21.02;15.60;;;24.30;19.70;;;;;;5025701;28;20046;-79
2022/03/23 12:44:33;;;;;;;19.65;15.27;;;24.80;19.50;;;;;;5031969;28;20255;-79
2022/03/23 12:47:21;;;;;;;18.88;15.73;;;25.20;20.20;;;;;;5026864;28;20025;-79
2022/03/23 12:58:17;;;;;;;21.17;16.30;;;25.60;20.30;;;;;;5023533;28;20049;-78
2022/03/23 13:00:51;;;;;;;25.60;16.42;;;24.50;19.90;;;;;;5027448;28;20037;-78
2022/03/23 13:03:19;;;;;;;19.48;14.77;;;24.20;18.70;;;;;;5026866;28;20397;-79
2022/03/23 13:05:59;;;;;;;18.85;13.80;;;24.20;19.00;;;;;;5025589;28;20034;-79
2022/03/23 13:08:30;;;;;;;20.77;15.20;;;25.40;17.80;;;;;;5029077;28;20347;-78
2022/03/23 13:10:58;;;;;;;19.00;15.13;;;25.00;17.60;;;;;;5025131;28;20026;-78
2022/03/23 13:13:24;;;;;;;19.90;15.30;;;24.70;18.00;;;;;;5030466;28;20088;-78
2022/03/23 13:15:51;;;;;;;18.60;14.80;;;24.60;17.60;;;;;;5032455;28;20026;-78